sensor_id;sensor_type;location;lat;lon;timestamp;P1;durP1;ratioP1;P2;durP2;ratioP2
19107;SDS011;9686;48.832;9.126;2022-12-18T00:01:03;42.63;;;21.27;;
19107;SDS011;9686;48.832;9.126;2022-12-18T00:03:34;51.67;;;22.77;;
19107;SDS011;9686;48.832;9.126;2022-12-18T00:06:00;44.47;;;22.43;;
19107;SDS011;9686;48.832;9.126;2022-12-18T00:08:26;43.40;;;22.57;;
19107;SDS011;9686;48.832;9.126;2022-12-18T00:10:52;46.27;;;22.10;;
19107;SDS011;9686;48.832;9.126;2022-12-18T00:13:17;46.33;;;22.90;;
19107;SDS011;9686;48.832;9.126;2022-12-18T00:15:43;45.43;;;22.83;;
19107;SDS011;9686;48.832;9.126;2022-12-18T00:18:08;45.63;;;22.97;;
19107;SDS011;9686;48.832;9.126;2022-12-18T00:20:38;48.60;;;22.27;;
19107;SDS011;9686;48.832;9.126;2022-12-18T00:23:05;46.50;;;22.90;;
19107;SDS011;9686;48.832;9.126;2022-12-18T00:25:32;44.03;;;21.60;;
19107;SDS011;9686;48.832;9.126;2022-12-18T00:27:59;45.07;;;23.20;;
19107;SDS011;9686;48.832;9.126;2022-12-18T00:30:24;38.17;;;20.83;;
19107;SDS011;9686;48.832;9.126;2022-12-18T00:32:50;43.30;;;21.73;;
19107;SDS011;9686;48.832;9.126;2022-12-18T00:35:15;53.30;;;23.33;;
19107;SDS011;9686;48.832;9.126;2022-12-18T00:37:40;43.90;;;22.43;;
19107;SDS011;9686;48.832;9.126;2022-12-18T00:40:06;45.00;;;22.27;;
19107;SDS011;9686;48.832;9.126;2022-12-18T00:42:32;43.43;;;20.67;;
19107;SDS011;9686;48.832;9.126;2022-12-18T00:45:16;43.90;;;21.53;;
19107;SDS011;9686;48.832;9.126;2022-12-18T00:47:41;46.83;;;23.87;;
19107;SDS011;9686;48.832;9.126;2022-12-18T00:50:07;46.50;;;21.40;;
19107;SDS011;9686;48.832;9.126;2022-12-18T00:52:32;46.33;;;20.90;;
19107;SDS011;9686;48.832;9.126;2022-12-18T00:54:58;50.00;;;22.53;;
19107;SDS011;9686;48.832;9.126;2022-12-18T00:57:23;41.00;;;21.10;;
19107;SDS011;9686;48.832;9.126;2022-12-18T00:59:48;44.27;;;23.00;;
19107;SDS011;9686;48.832;9.126;2022-12-18T01:02:14;49.73;;;23.33;;
19107;SDS011;9686;48.832;9.126;2022-12-18T01:04:39;45.70;;;21.57;;
19107;SDS011;9686;48.832;9.126;2022-12-18T01:07:04;49.53;;;20.57;;
19107;SDS011;9686;48.832;9.126;2022-12-18T01:09:29;44.23;;;21.70;;
19107;SDS011;9686;48.832;9.126;2022-12-18T01:11:55;38.77;;;19.77;;
19107;SDS011;9686;48.832;9.126;2022-12-18T01:14:20;42.30;;;21.27;;
19107;SDS011;9686;48.832;9.126;2022-12-18T01:16:45;39.30;;;19.97;;
19107;SDS011;9686;48.832;9.126;2022-12-18T01:19:11;39.90;;;19.17;;
19107;SDS011;9686;48.832;9.126;2022-12-18T01:21:36;45.33;;;21.07;;
19107;SDS011;9686;48.832;9.126;2022-12-18T01:24:01;38.07;;;19.70;;
19107;SDS011;9686;48.832;9.126;2022-12-18T01:26:27;42.33;;;20.97;;
19107;SDS011;9686;48.832;9.126;2022-12-18T01:28:55;39.47;;;19.73;;
19107;SDS011;9686;48.832;9.126;2022-12-18T01:31:25;41.83;;;21.60;;
19107;SDS011;9686;48.832;9.126;2022-12-18T01:33:53;48.17;;;22.97;;
19107;SDS011;9686;48.832;9.126;2022-12-18T01:36:26;41.10;;;21.17;;
19107;SDS011;9686;48.832;9.126;2022-12-18T01:38:53;47.90;;;21.27;;
19107;SDS011;9686;48.832;9.126;2022-12-18T01:41:23;62.10;;;26.27;;
19107;SDS011;9686;48.832;9.126;2022-12-18T01:46:20;45.17;;;20.43;;
19107;SDS011;9686;48.832;9.126;2022-12-18T01:48:48;42.33;;;20.67;;
19107;SDS011;9686;48.832;9.126;2022-12-18T01:51:25;49.20;;;19.30;;
19107;SDS011;9686;48.832;9.126;2022-12-18T01:53:52;43.57;;;20.03;;
19107;SDS011;9686;48.832;9.126;2022-12-18T01:56:18;42.30;;;19.97;;
19107;SDS011;9686;48.832;9.126;2022-12-18T02:01:24;42.17;;;20.17;;
19107;SDS011;9686;48.832;9.126;2022-12-18T02:03:51;50.23;;;21.57;;
19107;SDS011;9686;48.832;9.126;2022-12-18T02:28:04;48.40;;;19.60;;
19107;SDS011;9686;48.832;9.126;2022-12-18T02:30:34;40.43;;;21.13;;
19107;SDS011;9686;48.832;9.126;2022-12-18T02:33:02;47.83;;;21.23;;
19107;SDS011;9686;48.832;9.126;2022-12-18T02:35:31;48.73;;;22.73;;
19107;SDS011;9686;48.832;9.126;2022-12-18T02:37:59;41.80;;;20.20;;
19107;SDS011;9686;48.832;9.126;2022-12-18T02:40:26;41.83;;;19.53;;
19107;SDS011;9686;48.832;9.126;2022-12-18T02:42:53;46.53;;;21.40;;
19107;SDS011;9686;48.832;9.126;2022-12-18T02:45:18;40.80;;;20.33;;
19107;SDS011;9686;48.832;9.126;2022-12-18T02:47:45;48.13;;;20.13;;
19107;SDS011;9686;48.832;9.126;2022-12-18T02:53:12;37.57;;;18.13;;
19107;SDS011;9686;48.832;9.126;2022-12-18T03:01:06;45.73;;;20.03;;
19107;SDS011;9686;48.832;9.126;2022-12-18T03:03:40;40.93;;;19.40;;
19107;SDS011;9686;48.832;9.126;2022-12-18T03:06:13;44.83;;;21.43;;
19107;SDS011;9686;48.832;9.126;2022-12-18T03:08:47;40.73;;;20.43;;
19107;SDS011;9686;48.832;9.126;2022-12-18T03:11:17;43.13;;;20.23;;
19107;SDS011;9686;48.832;9.126;2022-12-18T03:14:02;38.23;;;20.40;;
19107;SDS011;9686;48.832;9.126;2022-12-18T03:16:30;38.80;;;20.07;;
19107;SDS011;9686;48.832;9.126;2022-12-18T03:18:57;38.67;;;19.67;;
19107;SDS011;9686;48.832;9.126;2022-12-18T03:21:33;42.67;;;19.03;;
19107;SDS011;9686;48.832;9.126;2022-12-18T03:24:06;36.23;;;16.67;;
19107;SDS011;9686;48.832;9.126;2022-12-18T03:26:34;40.23;;;19.53;;
19107;SDS011;9686;48.832;9.126;2022-12-18T03:29:06;42.87;;;19.00;;
19107;SDS011;9686;48.832;9.126;2022-12-18T03:31:35;36.00;;;17.87;;
19107;SDS011;9686;48.832;9.126;2022-12-18T03:34:05;41.33;;;19.00;;
19107;SDS011;9686;48.832;9.126;2022-12-18T03:36:37;38.60;;;19.27;;
19107;SDS011;9686;48.832;9.126;2022-12-18T03:39:02;41.57;;;19.67;;
19107;SDS011;9686;48.832;9.126;2022-12-18T03:41:31;42.73;;;17.83;;
19107;SDS011;9686;48.832;9.126;2022-12-18T03:44:01;40.67;;;18.77;;
19107;SDS011;9686;48.832;9.126;2022-12-18T03:46:30;35.80;;;18.10;;
19107;SDS011;9686;48.832;9.126;2022-12-18T03:49:10;40.57;;;19.43;;
19107;SDS011;9686;48.832;9.126;2022-12-18T03:51:48;36.27;;;17.67;;
19107;SDS011;9686;48.832;9.126;2022-12-18T03:54:17;37.33;;;18.37;;
19107;SDS011;9686;48.832;9.126;2022-12-18T03:56:47;44.00;;;19.67;;
19107;SDS011;9686;48.832;9.126;2022-12-18T03:59:18;37.27;;;18.90;;
19107;SDS011;9686;48.832;9.126;2022-12-18T04:01:48;35.17;;;17.13;;
19107;SDS011;9686;48.832;9.126;2022-12-18T04:04:16;39.37;;;17.50;;
19107;SDS011;9686;48.832;9.126;2022-12-18T04:06:44;38.70;;;17.60;;
19107;SDS011;9686;48.832;9.126;2022-12-18T04:09:12;33.20;;;16.97;;
19107;SDS011;9686;48.832;9.126;2022-12-18T04:11:39;42.43;;;19.43;;
19107;SDS011;9686;48.832;9.126;2022-12-18T04:14:06;40.80;;;17.60;;
19107;SDS011;9686;48.832;9.126;2022-12-18T04:16:31;35.77;;;16.40;;
19107;SDS011;9686;48.832;9.126;2022-12-18T04:18:56;37.23;;;18.30;;
19107;SDS011;9686;48.832;9.126;2022-12-18T04:21:21;42.10;;;17.83;;
19107;SDS011;9686;48.832;9.126;2022-12-18T04:23:47;36.00;;;18.00;;
19107;SDS011;9686;48.832;9.126;2022-12-18T04:26:13;36.47;;;16.83;;
19107;SDS011;9686;48.832;9.126;2022-12-18T04:28:38;36.43;;;17.83;;
19107;SDS011;9686;48.832;9.126;2022-12-18T04:31:03;37.53;;;17.47;;
19107;SDS011;9686;48.832;9.126;2022-12-18T04:33:29;35.13;;;16.73;;
19107;SDS011;9686;48.832;9.126;2022-12-18T04:35:54;36.03;;;17.40;;
19107;SDS011;9686;48.832;9.126;2022-12-18T04:38:19;33.43;;;15.93;;
19107;SDS011;9686;48.832;9.126;2022-12-18T04:40:45;37.57;;;17.17;;
19107;SDS011;9686;48.832;9.126;2022-12-18T04:43:10;35.83;;;17.87;;
19107;SDS011;9686;48.832;9.126;2022-12-18T04:45:35;31.63;;;15.87;;
19107;SDS011;9686;48.832;9.126;2022-12-18T04:48:01;33.27;;;16.50;;
19107;SDS011;9686;48.832;9.126;2022-12-18T04:50:28;35.13;;;17.67;;
19107;SDS011;9686;48.832;9.126;2022-12-18T04:52:54;35.90;;;17.10;;
19107;SDS011;9686;48.832;9.126;2022-12-18T04:55:19;32.30;;;16.93;;
19107;SDS011;9686;48.832;9.126;2022-12-18T04:57:45;34.43;;;16.40;;
19107;SDS011;9686;48.832;9.126;2022-12-18T05:00:11;32.37;;;15.87;;
19107;SDS011;9686;48.832;9.126;2022-12-18T05:02:36;29.43;;;15.60;;
19107;SDS011;9686;48.832;9.126;2022-12-18T05:05:02;38.37;;;16.17;;
19107;SDS011;9686;48.832;9.126;2022-12-18T05:07:27;28.90;;;13.87;;
19107;SDS011;9686;48.832;9.126;2022-12-18T05:09:53;30.87;;;15.60;;
19107;SDS011;9686;48.832;9.126;2022-12-18T05:12:18;32.33;;;15.97;;
19107;SDS011;9686;48.832;9.126;2022-12-18T05:14:43;32.37;;;15.53;;
19107;SDS011;9686;48.832;9.126;2022-12-18T05:17:08;30.27;;;15.27;;
19107;SDS011;9686;48.832;9.126;2022-12-18T05:19:34;29.57;;;15.93;;
19107;SDS011;9686;48.832;9.126;2022-12-18T05:21:59;32.27;;;15.73;;
19107;SDS011;9686;48.832;9.126;2022-12-18T05:24:25;35.53;;;15.93;;
19107;SDS011;9686;48.832;9.126;2022-12-18T05:26:50;29.23;;;14.73;;
19107;SDS011;9686;48.832;9.126;2022-12-18T05:29:15;35.50;;;15.10;;
19107;SDS011;9686;48.832;9.126;2022-12-18T05:31:41;33.43;;;16.87;;
19107;SDS011;9686;48.832;9.126;2022-12-18T05:34:06;33.33;;;16.07;;
19107;SDS011;9686;48.832;9.126;2022-12-18T05:36:32;30.97;;;15.67;;
19107;SDS011;9686;48.832;9.126;2022-12-18T05:38:57;34.23;;;16.47;;
19107;SDS011;9686;48.832;9.126;2022-12-18T05:41:22;37.63;;;16.87;;
19107;SDS011;9686;48.832;9.126;2022-12-18T05:43:47;31.40;;;16.00;;
19107;SDS011;9686;48.832;9.126;2022-12-18T05:46:14;34.33;;;16.47;;
19107;SDS011;9686;48.832;9.126;2022-12-18T05:48:42;30.97;;;14.53;;
19107;SDS011;9686;48.832;9.126;2022-12-18T05:51:18;31.70;;;15.83;;
19107;SDS011;9686;48.832;9.126;2022-12-18T05:53:46;33.87;;;16.73;;
19107;SDS011;9686;48.832;9.126;2022-12-18T05:56:13;35.87;;;17.47;;
19107;SDS011;9686;48.832;9.126;2022-12-18T05:58:40;30.23;;;15.13;;
19107;SDS011;9686;48.832;9.126;2022-12-18T06:01:07;31.43;;;14.77;;
19107;SDS011;9686;48.832;9.126;2022-12-18T06:03:33;36.33;;;15.67;;
19107;SDS011;9686;48.832;9.126;2022-12-18T06:05:58;30.87;;;15.03;;
19107;SDS011;9686;48.832;9.126;2022-12-18T06:08:23;33.37;;;15.50;;
19107;SDS011;9686;48.832;9.126;2022-12-18T06:10:49;28.30;;;15.00;;
19107;SDS011;9686;48.832;9.126;2022-12-18T06:13:17;30.40;;;15.47;;
19107;SDS011;9686;48.832;9.126;2022-12-18T06:15:43;35.17;;;16.70;;
19107;SDS011;9686;48.832;9.126;2022-12-18T06:18:08;29.13;;;14.53;;
19107;SDS011;9686;48.832;9.126;2022-12-18T06:20:33;27.70;;;13.90;;
19107;SDS011;9686;48.832;9.126;2022-12-18T06:23:01;32.33;;;15.93;;
19107;SDS011;9686;48.832;9.126;2022-12-18T06:25:26;33.73;;;15.30;;
19107;SDS011;9686;48.832;9.126;2022-12-18T06:27:52;30.60;;;14.17;;
19107;SDS011;9686;48.832;9.126;2022-12-18T06:30:17;36.50;;;15.37;;
19107;SDS011;9686;48.832;9.126;2022-12-18T06:32:43;31.93;;;14.23;;
19107;SDS011;9686;48.832;9.126;2022-12-18T06:35:08;32.83;;;15.60;;
19107;SDS011;9686;48.832;9.126;2022-12-18T06:37:33;28.43;;;14.30;;
19107;SDS011;9686;48.832;9.126;2022-12-18T06:39:59;31.03;;;14.70;;
19107;SDS011;9686;48.832;9.126;2022-12-18T06:42:25;31.67;;;14.93;;
19107;SDS011;9686;48.832;9.126;2022-12-18T06:44:51;26.07;;;14.67;;
19107;SDS011;9686;48.832;9.126;2022-12-18T06:47:17;29.20;;;13.00;;
19107;SDS011;9686;48.832;9.126;2022-12-18T06:49:43;34.63;;;14.23;;
19107;SDS011;9686;48.832;9.126;2022-12-18T06:52:08;29.97;;;14.30;;
19107;SDS011;9686;48.832;9.126;2022-12-18T06:54:33;30.67;;;14.43;;
19107;SDS011;9686;48.832;9.126;2022-12-18T06:56:59;32.80;;;14.07;;
19107;SDS011;9686;48.832;9.126;2022-12-18T06:59:24;28.60;;;13.73;;
19107;SDS011;9686;48.832;9.126;2022-12-18T07:01:49;30.10;;;14.83;;
19107;SDS011;9686;48.832;9.126;2022-12-18T07:04:15;27.47;;;14.70;;
19107;SDS011;9686;48.832;9.126;2022-12-18T07:06:40;25.00;;;13.30;;
19107;SDS011;9686;48.832;9.126;2022-12-18T07:09:05;24.97;;;13.50;;
19107;SDS011;9686;48.832;9.126;2022-12-18T07:11:32;26.70;;;13.10;;
19107;SDS011;9686;48.832;9.126;2022-12-18T07:13:57;28.67;;;13.10;;
19107;SDS011;9686;48.832;9.126;2022-12-18T07:16:23;25.10;;;14.10;;
19107;SDS011;9686;48.832;9.126;2022-12-18T07:18:48;31.00;;;14.10;;
19107;SDS011;9686;48.832;9.126;2022-12-18T07:21:15;31.13;;;13.90;;
19107;SDS011;9686;48.832;9.126;2022-12-18T07:23:43;30.30;;;14.90;;
19107;SDS011;9686;48.832;9.126;2022-12-18T07:26:10;28.90;;;14.60;;
19107;SDS011;9686;48.832;9.126;2022-12-18T07:28:37;24.83;;;13.57;;
19107;SDS011;9686;48.832;9.126;2022-12-18T07:31:04;30.77;;;14.57;;
19107;SDS011;9686;48.832;9.126;2022-12-18T07:33:31;26.53;;;13.80;;
19107;SDS011;9686;48.832;9.126;2022-12-18T07:36:04;24.67;;;13.83;;
19107;SDS011;9686;48.832;9.126;2022-12-18T07:38:31;29.37;;;13.90;;
19107;SDS011;9686;48.832;9.126;2022-12-18T07:41:01;32.70;;;13.57;;
19107;SDS011;9686;48.832;9.126;2022-12-18T07:43:27;24.53;;;13.43;;
19107;SDS011;9686;48.832;9.126;2022-12-18T07:45:53;24.97;;;13.80;;
19107;SDS011;9686;48.832;9.126;2022-12-18T07:48:18;31.57;;;14.17;;
19107;SDS011;9686;48.832;9.126;2022-12-18T07:50:43;26.80;;;13.93;;
19107;SDS011;9686;48.832;9.126;2022-12-18T07:53:09;32.70;;;15.20;;
19107;SDS011;9686;48.832;9.126;2022-12-18T07:55:34;28.93;;;14.13;;
19107;SDS011;9686;48.832;9.126;2022-12-18T07:58:03;28.37;;;13.70;;
19107;SDS011;9686;48.832;9.126;2022-12-18T08:00:29;26.10;;;14.00;;
19107;SDS011;9686;48.832;9.126;2022-12-18T08:02:55;31.40;;;13.53;;
19107;SDS011;9686;48.832;9.126;2022-12-18T08:05:20;25.60;;;13.37;;
19107;SDS011;9686;48.832;9.126;2022-12-18T08:07:46;26.30;;;13.60;;
19107;SDS011;9686;48.832;9.126;2022-12-18T08:10:11;25.50;;;12.40;;
19107;SDS011;9686;48.832;9.126;2022-12-18T08:12:37;28.23;;;13.40;;
19107;SDS011;9686;48.832;9.126;2022-12-18T08:15:03;23.07;;;13.57;;
19107;SDS011;9686;48.832;9.126;2022-12-18T08:17:28;32.53;;;14.13;;
19107;SDS011;9686;48.832;9.126;2022-12-18T08:19:53;27.17;;;14.17;;
19107;SDS011;9686;48.832;9.126;2022-12-18T08:22:19;28.87;;;13.57;;
19107;SDS011;9686;48.832;9.126;2022-12-18T08:24:44;25.00;;;13.60;;
19107;SDS011;9686;48.832;9.126;2022-12-18T08:27:10;28.27;;;15.17;;
19107;SDS011;9686;48.832;9.126;2022-12-18T08:29:35;30.00;;;15.10;;
19107;SDS011;9686;48.832;9.126;2022-12-18T08:32:00;31.80;;;15.37;;
19107;SDS011;9686;48.832;9.126;2022-12-18T08:34:25;29.73;;;14.57;;
19107;SDS011;9686;48.832;9.126;2022-12-18T08:36:51;33.17;;;16.30;;
19107;SDS011;9686;48.832;9.126;2022-12-18T08:39:16;28.00;;;15.57;;
19107;SDS011;9686;48.832;9.126;2022-12-18T08:41:41;28.37;;;14.77;;
19107;SDS011;9686;48.832;9.126;2022-12-18T08:44:07;30.33;;;16.10;;
19107;SDS011;9686;48.832;9.126;2022-12-18T08:46:51;31.50;;;14.90;;
19107;SDS011;9686;48.832;9.126;2022-12-18T08:49:16;30.57;;;14.43;;
19107;SDS011;9686;48.832;9.126;2022-12-18T08:51:43;29.23;;;15.23;;
19107;SDS011;9686;48.832;9.126;2022-12-18T08:54:09;29.47;;;15.60;;
19107;SDS011;9686;48.832;9.126;2022-12-18T08:56:36;30.10;;;16.73;;
19107;SDS011;9686;48.832;9.126;2022-12-18T08:59:02;32.70;;;15.67;;
19107;SDS011;9686;48.832;9.126;2022-12-18T09:01:27;31.43;;;16.33;;
19107;SDS011;9686;48.832;9.126;2022-12-18T09:03:53;30.90;;;16.93;;
19107;SDS011;9686;48.832;9.126;2022-12-18T09:06:19;29.00;;;16.10;;
19107;SDS011;9686;48.832;9.126;2022-12-18T09:08:46;31.60;;;16.07;;
19107;SDS011;9686;48.832;9.126;2022-12-18T09:11:13;31.17;;;17.57;;
19107;SDS011;9686;48.832;9.126;2022-12-18T09:13:57;29.37;;;16.10;;
19107;SDS011;9686;48.832;9.126;2022-12-18T09:16:23;31.87;;;16.43;;
19107;SDS011;9686;48.832;9.126;2022-12-18T09:18:50;34.90;;;16.47;;
19107;SDS011;9686;48.832;9.126;2022-12-18T09:21:17;30.00;;;15.13;;
19107;SDS011;9686;48.832;9.126;2022-12-18T09:23:45;31.13;;;16.70;;
19107;SDS011;9686;48.832;9.126;2022-12-18T09:26:14;36.33;;;18.03;;
19107;SDS011;9686;48.832;9.126;2022-12-18T09:28:39;32.43;;;16.97;;
19107;SDS011;9686;48.832;9.126;2022-12-18T09:31:05;32.77;;;16.97;;
19107;SDS011;9686;48.832;9.126;2022-12-18T09:33:33;30.63;;;16.23;;
19107;SDS011;9686;48.832;9.126;2022-12-18T09:36:02;36.13;;;16.73;;
19107;SDS011;9686;48.832;9.126;2022-12-18T09:38:30;35.67;;;17.67;;
19107;SDS011;9686;48.832;9.126;2022-12-18T09:41:06;35.93;;;18.50;;
19107;SDS011;9686;48.832;9.126;2022-12-18T09:43:57;28.10;;;15.63;;
19107;SDS011;9686;48.832;9.126;2022-12-18T09:47:06;35.90;;;16.30;;
19107;SDS011;9686;48.832;9.126;2022-12-18T09:49:43;31.80;;;15.80;;
19107;SDS011;9686;48.832;9.126;2022-12-18T09:54:48;30.67;;;16.87;;
19107;SDS011;9686;48.832;9.126;2022-12-18T09:57:19;36.73;;;18.80;;
19107;SDS011;9686;48.832;9.126;2022-12-18T09:59:51;33.03;;;17.97;;
19107;SDS011;9686;48.832;9.126;2022-12-18T10:02:20;32.57;;;17.03;;
19107;SDS011;9686;48.832;9.126;2022-12-18T10:07:41;34.63;;;17.53;;
19107;SDS011;9686;48.832;9.126;2022-12-18T10:16:06;37.23;;;17.73;;
19107;SDS011;9686;48.832;9.126;2022-12-18T10:18:50;33.20;;;16.27;;
19107;SDS011;9686;48.832;9.126;2022-12-18T10:21:33;27.93;;;15.83;;
19107;SDS011;9686;48.832;9.126;2022-12-18T10:26:55;35.70;;;16.87;;
19107;SDS011;9686;48.832;9.126;2022-12-18T10:29:31;32.97;;;16.60;;
19107;SDS011;9686;48.832;9.126;2022-12-18T10:31:57;33.07;;;16.83;;
19107;SDS011;9686;48.832;9.126;2022-12-18T10:34:23;28.60;;;16.67;;
19107;SDS011;9686;48.832;9.126;2022-12-18T10:36:48;29.57;;;16.50;;
19107;SDS011;9686;48.832;9.126;2022-12-18T10:39:21;32.50;;;17.77;;
19107;SDS011;9686;48.832;9.126;2022-12-18T10:41:48;33.53;;;17.10;;
19107;SDS011;9686;48.832;9.126;2022-12-18T10:44:18;33.73;;;16.87;;
19107;SDS011;9686;48.832;9.126;2022-12-18T10:46:45;34.00;;;16.67;;
19107;SDS011;9686;48.832;9.126;2022-12-18T10:49:21;34.33;;;17.10;;
19107;SDS011;9686;48.832;9.126;2022-12-18T10:54:48;34.83;;;17.77;;
19107;SDS011;9686;48.832;9.126;2022-12-18T10:59:59;31.47;;;16.67;;
19107;SDS011;9686;48.832;9.126;2022-12-18T11:02:36;29.37;;;16.23;;
19107;SDS011;9686;48.832;9.126;2022-12-18T11:05:04;34.97;;;17.47;;
19107;SDS011;9686;48.832;9.126;2022-12-18T11:07:50;37.73;;;16.67;;
19107;SDS011;9686;48.832;9.126;2022-12-18T11:10:16;28.90;;;15.57;;
19107;SDS011;9686;48.832;9.126;2022-12-18T11:12:43;30.07;;;16.63;;
19107;SDS011;9686;48.832;9.126;2022-12-18T11:15:20;31.50;;;18.03;;
19107;SDS011;9686;48.832;9.126;2022-12-18T11:17:49;29.17;;;17.03;;
19107;SDS011;9686;48.832;9.126;2022-12-18T11:23:04;35.80;;;18.83;;
19107;SDS011;9686;48.832;9.126;2022-12-18T11:25:35;32.33;;;17.07;;
19107;SDS011;9686;48.832;9.126;2022-12-18T11:30:50;35.87;;;18.23;;
19107;SDS011;9686;48.832;9.126;2022-12-18T11:33:37;29.37;;;16.30;;
19107;SDS011;9686;48.832;9.126;2022-12-18T11:36:05;32.30;;;17.07;;
19107;SDS011;9686;48.832;9.126;2022-12-18T11:38:34;32.40;;;16.53;;
19107;SDS011;9686;48.832;9.126;2022-12-18T11:41:21;29.03;;;17.60;;
19107;SDS011;9686;48.832;9.126;2022-12-18T11:44:11;28.80;;;16.43;;
19107;SDS011;9686;48.832;9.126;2022-12-18T11:46:45;29.93;;;16.10;;
19107;SDS011;9686;48.832;9.126;2022-12-18T11:49:17;30.50;;;16.47;;
19107;SDS011;9686;48.832;9.126;2022-12-18T11:51:51;28.47;;;15.80;;
19107;SDS011;9686;48.832;9.126;2022-12-18T11:54:20;27.03;;;15.10;;
19107;SDS011;9686;48.832;9.126;2022-12-18T11:56:47;28.00;;;15.70;;
19107;SDS011;9686;48.832;9.126;2022-12-18T11:59:19;26.43;;;14.37;;
19107;SDS011;9686;48.832;9.126;2022-12-18T12:02:11;29.17;;;15.23;;
19107;SDS011;9686;48.832;9.126;2022-12-18T12:05:13;23.97;;;14.30;;
19107;SDS011;9686;48.832;9.126;2022-12-18T12:07:59;26.63;;;15.80;;
19107;SDS011;9686;48.832;9.126;2022-12-18T12:19:34;27.70;;;14.77;;
19107;SDS011;9686;48.832;9.126;2022-12-18T12:22:06;28.60;;;15.13;;
19107;SDS011;9686;48.832;9.126;2022-12-18T12:30:16;26.43;;;14.83;;
19107;SDS011;9686;48.832;9.126;2022-12-18T12:35:42;27.40;;;14.87;;
19107;SDS011;9686;48.832;9.126;2022-12-18T12:38:17;24.73;;;14.07;;
19107;SDS011;9686;48.832;9.126;2022-12-18T12:40:49;28.70;;;15.07;;
19107;SDS011;9686;48.832;9.126;2022-12-18T12:46:00;28.97;;;15.60;;
19107;SDS011;9686;48.832;9.126;2022-12-18T12:51:01;31.13;;;15.43;;
19107;SDS011;9686;48.832;9.126;2022-12-18T12:53:35;33.50;;;16.50;;
19107;SDS011;9686;48.832;9.126;2022-12-18T12:56:03;28.30;;;15.80;;
19107;SDS011;9686;48.832;9.126;2022-12-18T13:01:12;30.23;;;14.77;;
19107;SDS011;9686;48.832;9.126;2022-12-18T13:06:49;30.77;;;16.23;;
19107;SDS011;9686;48.832;9.126;2022-12-18T13:09:21;31.87;;;15.80;;
19107;SDS011;9686;48.832;9.126;2022-12-18T13:11:46;30.40;;;16.53;;
19107;SDS011;9686;48.832;9.126;2022-12-18T13:22:40;33.50;;;15.57;;
19107;SDS011;9686;48.832;9.126;2022-12-18T13:25:28;32.43;;;15.97;;
19107;SDS011;9686;48.832;9.126;2022-12-18T13:28:16;31.27;;;16.57;;
19107;SDS011;9686;48.832;9.126;2022-12-18T13:30:46;32.33;;;16.70;;
19107;SDS011;9686;48.832;9.126;2022-12-18T13:35:39;30.30;;;14.57;;
19107;SDS011;9686;48.832;9.126;2022-12-18T13:38:23;29.70;;;15.83;;
19107;SDS011;9686;48.832;9.126;2022-12-18T13:40:58;29.73;;;15.47;;
19107;SDS011;9686;48.832;9.126;2022-12-18T13:43:28;28.50;;;15.37;;
19107;SDS011;9686;48.832;9.126;2022-12-18T13:46:05;30.73;;;16.23;;
19107;SDS011;9686;48.832;9.126;2022-12-18T13:48:32;25.93;;;14.33;;
19107;SDS011;9686;48.832;9.126;2022-12-18T13:51:05;31.70;;;16.70;;
19107;SDS011;9686;48.832;9.126;2022-12-18T13:53:34;31.93;;;17.37;;
19107;SDS011;9686;48.832;9.126;2022-12-18T13:56:03;33.37;;;17.03;;
19107;SDS011;9686;48.832;9.126;2022-12-18T13:58:30;32.07;;;16.80;;
19107;SDS011;9686;48.832;9.126;2022-12-18T14:00:55;30.43;;;15.40;;
19107;SDS011;9686;48.832;9.126;2022-12-18T14:03:22;27.40;;;15.13;;
19107;SDS011;9686;48.832;9.126;2022-12-18T14:06:06;27.60;;;15.53;;
19107;SDS011;9686;48.832;9.126;2022-12-18T14:08:35;34.73;;;16.93;;
19107;SDS011;9686;48.832;9.126;2022-12-18T14:11:04;30.87;;;17.00;;
19107;SDS011;9686;48.832;9.126;2022-12-18T14:13:32;32.47;;;16.63;;
19107;SDS011;9686;48.832;9.126;2022-12-18T14:16:02;36.97;;;18.37;;
19107;SDS011;9686;48.832;9.126;2022-12-18T14:18:36;37.13;;;17.40;;
19107;SDS011;9686;48.832;9.126;2022-12-18T14:21:14;32.07;;;17.53;;
19107;SDS011;9686;48.832;9.126;2022-12-18T14:23:43;36.40;;;17.50;;
19107;SDS011;9686;48.832;9.126;2022-12-18T14:26:20;30.13;;;16.50;;
19107;SDS011;9686;48.832;9.126;2022-12-18T14:28:47;34.53;;;16.60;;
19107;SDS011;9686;48.832;9.126;2022-12-18T14:31:19;31.73;;;16.17;;
19107;SDS011;9686;48.832;9.126;2022-12-18T14:33:46;31.93;;;16.43;;
19107;SDS011;9686;48.832;9.126;2022-12-18T14:36:13;33.20;;;17.77;;
19107;SDS011;9686;48.832;9.126;2022-12-18T14:38:42;32.27;;;15.73;;
19107;SDS011;9686;48.832;9.126;2022-12-18T14:41:12;27.30;;;15.23;;
19107;SDS011;9686;48.832;9.126;2022-12-18T14:43:40;27.30;;;15.67;;
19107;SDS011;9686;48.832;9.126;2022-12-18T14:49:29;30.07;;;15.90;;
19107;SDS011;9686;48.832;9.126;2022-12-18T14:52:00;35.37;;;15.90;;
19107;SDS011;9686;48.832;9.126;2022-12-18T14:54:27;30.40;;;16.60;;
19107;SDS011;9686;48.832;9.126;2022-12-18T14:59:41;33.07;;;16.23;;
19107;SDS011;9686;48.832;9.126;2022-12-18T15:02:22;33.30;;;17.87;;
19107;SDS011;9686;48.832;9.126;2022-12-18T15:05:03;33.40;;;17.00;;
19107;SDS011;9686;48.832;9.126;2022-12-18T15:07:46;36.17;;;17.23;;
19107;SDS011;9686;48.832;9.126;2022-12-18T15:10:14;36.87;;;17.97;;
19107;SDS011;9686;48.832;9.126;2022-12-18T15:12:43;36.93;;;18.07;;
19107;SDS011;9686;48.832;9.126;2022-12-18T15:18:02;38.77;;;18.47;;
19107;SDS011;9686;48.832;9.126;2022-12-18T15:25:47;35.53;;;19.50;;
19107;SDS011;9686;48.832;9.126;2022-12-18T15:28:21;37.83;;;18.73;;
19107;SDS011;9686;48.832;9.126;2022-12-18T15:33:34;38.37;;;18.73;;
19107;SDS011;9686;48.832;9.126;2022-12-18T15:36:11;34.83;;;17.80;;
19107;SDS011;9686;48.832;9.126;2022-12-18T15:38:38;36.27;;;19.67;;
19107;SDS011;9686;48.832;9.126;2022-12-18T15:41:03;36.70;;;18.70;;
19107;SDS011;9686;48.832;9.126;2022-12-18T15:43:29;32.10;;;17.60;;
19107;SDS011;9686;48.832;9.126;2022-12-18T15:46:04;35.23;;;18.20;;
19107;SDS011;9686;48.832;9.126;2022-12-18T15:48:32;44.80;;;20.40;;
19107;SDS011;9686;48.832;9.126;2022-12-18T15:50:59;32.30;;;18.17;;
19107;SDS011;9686;48.832;9.126;2022-12-18T15:53:27;33.60;;;18.63;;
19107;SDS011;9686;48.832;9.126;2022-12-18T15:55:56;35.57;;;17.83;;
19107;SDS011;9686;48.832;9.126;2022-12-18T15:58:41;36.30;;;18.50;;
19107;SDS011;9686;48.832;9.126;2022-12-18T16:01:07;34.33;;;19.03;;
19107;SDS011;9686;48.832;9.126;2022-12-18T16:03:34;34.80;;;18.53;;
19107;SDS011;9686;48.832;9.126;2022-12-18T16:06:00;38.37;;;18.67;;
19107;SDS011;9686;48.832;9.126;2022-12-18T16:08:26;34.20;;;19.20;;
19107;SDS011;9686;48.832;9.126;2022-12-18T16:10:54;38.67;;;18.40;;
19107;SDS011;9686;48.832;9.126;2022-12-18T16:13:19;42.40;;;19.03;;
19107;SDS011;9686;48.832;9.126;2022-12-18T16:15:45;37.13;;;18.40;;
19107;SDS011;9686;48.832;9.126;2022-12-18T16:18:10;39.50;;;18.57;;
19107;SDS011;9686;48.832;9.126;2022-12-18T16:20:36;30.47;;;17.80;;
19107;SDS011;9686;48.832;9.126;2022-12-18T16:23:03;41.43;;;19.73;;
19107;SDS011;9686;48.832;9.126;2022-12-18T16:25:29;33.97;;;19.07;;
19107;SDS011;9686;48.832;9.126;2022-12-18T16:27:54;37.40;;;19.43;;
19107;SDS011;9686;48.832;9.126;2022-12-18T16:30:23;35.27;;;19.37;;
19107;SDS011;9686;48.832;9.126;2022-12-18T16:32:52;37.93;;;20.17;;
19107;SDS011;9686;48.832;9.126;2022-12-18T16:35:18;38.87;;;19.00;;
19107;SDS011;9686;48.832;9.126;2022-12-18T16:37:44;34.93;;;17.70;;
19107;SDS011;9686;48.832;9.126;2022-12-18T16:40:10;34.07;;;19.07;;